Time;durP1;ratioP1;P1;durP2;ratioP2;P2;SDS_P1;SDS_P2;PMS_P1;PMS_P2;Temp;Humidity;BMP_temperature;BMP_pressure;BME280_temperature;BME280_humidity;BME280_pressure;Samples;Min_cycle;Max_cycle;Signal;HPM_P1;HPM_P2
2021/10/18 00:02:09;;;;;;;57.60;27.38;;;;;;;;;;5075028;28;20192;-66
2021/10/18 00:04:36;;;;;;;48.92;25.90;;;;;;;;;;5075157;28;20203;-66
2021/10/18 00:07:02;;;;;;;62.72;26.38;;;;;;;;;;5075257;28;20195;-66
2021/10/18 00:09:29;;;;;;;106.30;29.48;;;;;;;;;;5077402;28;20574;-66
2021/10/18 00:11:58;;;;;;;125.30;28.42;;;;;;;;;;5079083;28;20199;-66
2021/10/18 00:14:25;;;;;;;189.45;30.65;;;;;;;;;;5078714;28;20223;-66
2021/10/18 00:16:52;;;;;;;180.77;30.67;;;;;;;;;;5079174;28;20235;-66
2021/10/18 00:19:21;;;;;;;152.80;31.10;;;;;;;;;;5079007;28;20729;-66
2021/10/18 00:21:47;;;;;;;105.07;29.80;;;;;;;;;;5078649;28;20314;-66
2021/10/18 00:24:15;;;;;;;145.55;30.70;;;;;;;;;;5078811;28;20655;-66
2021/10/18 00:26:42;;;;;;;133.30;31.17;;;;;;;;;;5078660;28;20387;-66
2021/10/18 00:29:08;;;;;;;158.38;30.10;;;;;;;;;;5078858;28;20204;-66
2021/10/18 00:31:35;;;;;;;124.47;29.27;;;;;;;;;;5078729;28;20231;-66
2021/10/18 00:34:02;;;;;;;171.52;31.42;;;;;;;;;;5078544;28;20206;-66
2021/10/18 00:36:29;;;;;;;111.35;30.00;;;;;;;;;;5076984;28;20207;-66
2021/10/18 00:38:55;;;;;;;126.50;29.90;;;;;;;;;;5077169;28;20200;-66
2021/10/18 00:41:22;;;;;;;82.95;29.00;;;;;;;;;;5076858;28;20199;-66
2021/10/18 00:43:50;;;;;;;137.25;30.50;;;;;;;;;;5075312;28;20208;-66
2021/10/18 00:46:21;;;;;;;79.22;28.80;;;;;;;;;;5077223;28;20208;-66
2021/10/18 00:48:48;;;;;;;84.30;27.02;;;;;;;;;;5077363;28;20220;-66
2021/10/18 00:51:15;;;;;;;128.18;27.20;;;;;;;;;;5077326;28;20227;-66
2021/10/18 00:53:43;;;;;;;93.03;27.80;;;;;;;;;;5077164;28;20200;-66
2021/10/18 00:56:10;;;;;;;73.78;28.42;;;;;;;;;;5076474;28;20200;-66
2021/10/18 00:58:37;;;;;;;89.18;28.83;;;;;;;;;;5077358;28;20212;-66
2021/10/18 01:01:04;;;;;;;84.45;27.30;;;;;;;;;;5077087;28;20196;-66
2021/10/18 01:03:31;;;;;;;85.28;28.35;;;;;;;;;;5078017;28;20223;-66
2021/10/18 01:05:58;;;;;;;82.15;28.13;;;;;;;;;;5078215;28;20555;-66
2021/10/18 01:08:24;;;;;;;117.78;30.35;;;;;;;;;;5077795;28;20644;-66
2021/10/18 01:10:51;;;;;;;129.32;28.85;;;;;;;;;;5078140;28;20227;-66
2021/10/18 01:13:18;;;;;;;197.60;33.22;;;;;;;;;;5078279;28;20211;-66
2021/10/18 01:15:44;;;;;;;137.00;28.88;;;;;;;;;;5077867;28;20203;-66
2021/10/18 01:18:11;;;;;;;224.65;32.78;;;;;;;;;;5077605;28;20253;-66
2021/10/18 01:20:38;;;;;;;243.48;34.30;;;;;;;;;;5076564;28;20215;-66
2021/10/18 01:23:09;;;;;;;281.25;34.45;;;;;;;;;;5075717;28;20204;-66
2021/10/18 01:25:37;;;;;;;284.95;87.70;;;;;;;;;;5077458;28;20214;-66
2021/10/18 01:28:04;;;;;;;94.78;42.15;;;;;;;;;;5077662;28;20239;-66
2021/10/18 01:30:31;;;;;;;410.70;39.42;;;;;;;;;;5077929;28;20226;-66
2021/10/18 01:32:59;;;;;;;232.65;32.75;;;;;;;;;;5076295;28;20196;-66
2021/10/18 01:35:26;;;;;;;267.45;32.35;;;;;;;;;;5077128;28;20188;-66
2021/10/18 01:37:52;;;;;;;274.45;34.83;;;;;;;;;;5077487;28;20715;-66
2021/10/18 01:40:21;;;;;;;318.45;79.00;;;;;;;;;;5077305;28;20208;-66
2021/10/18 01:42:48;;;;;;;420.75;108.03;;;;;;;;;;5077751;28;20199;-66
2021/10/18 01:45:16;;;;;;;130.30;42.30;;;;;;;;;;5077222;28;20290;-66
2021/10/18 01:47:42;;;;;;;233.95;32.85;;;;;;;;;;5077316;28;20256;-66
2021/10/18 01:50:10;;;;;;;249.70;39.28;;;;;;;;;;5077514;28;20254;-66
2021/10/18 01:52:37;;;;;;;219.20;34.90;;;;;;;;;;5077351;28;20200;-66
2021/10/18 01:55:04;;;;;;;385.42;35.42;;;;;;;;;;5077090;28;20207;-66
2021/10/18 01:57:30;;;;;;;370.75;35.72;;;;;;;;;;5077210;28;20187;-66
2021/10/18 01:59:57;;;;;;;258.42;34.28;;;;;;;;;;5077497;28;20207;-66
2021/10/18 02:02:24;;;;;;;367.52;70.53;;;;;;;;;;5077325;28;20207;-66
2021/10/18 02:04:51;;;;;;;404.77;88.15;;;;;;;;;;5077220;28;20192;-66
2021/10/18 02:07:18;;;;;;;298.55;62.17;;;;;;;;;;5076986;28;20204;-66
2021/10/18 02:09:44;;;;;;;411.73;69.68;;;;;;;;;;5076559;28;20196;-66
2021/10/18 02:12:11;;;;;;;327.20;42.20;;;;;;;;;;5076617;28;20220;-66
2021/10/18 02:14:38;;;;;;;336.27;37.00;;;;;;;;;;5076883;28;20204;-66
2021/10/18 02:17:05;;;;;;;331.33;35.70;;;;;;;;;;5076532;28;20228;-66
2021/10/18 02:19:32;;;;;;;388.70;36.20;;;;;;;;;;5076819;28;20188;-66
2021/10/18 02:21:59;;;;;;;436.25;38.85;;;;;;;;;;5076886;28;20206;-66
2021/10/18 02:24:25;;;;;;;358.15;35.72;;;;;;;;;;5076273;28;20283;-66
2021/10/18 02:26:52;;;;;;;457.65;129.43;;;;;;;;;;5076092;28;20206;-66
2021/10/18 02:29:19;;;;;;;331.77;61.45;;;;;;;;;;5076513;28;20554;-66
2021/10/18 02:31:45;;;;;;;361.25;67.72;;;;;;;;;;5076033;28;20671;-66
2021/10/18 02:34:12;;;;;;;366.13;67.55;;;;;;;;;;5076677;28;20275;-66
2021/10/18 02:36:39;;;;;;;283.92;33.80;;;;;;;;;;5076474;28;20199;-66
2021/10/18 02:39:07;;;;;;;263.90;33.45;;;;;;;;;;5076192;28;20207;-66
2021/10/18 02:41:34;;;;;;;229.73;47.83;;;;;;;;;;5076307;28;20301;-66
2021/10/18 02:44:01;;;;;;;222.65;56.67;;;;;;;;;;5076170;28;20228;-66
2021/10/18 02:46:27;;;;;;;137.75;47.55;;;;;;;;;;5075767;28;20194;-66
2021/10/18 02:48:56;;;;;;;176.55;49.03;;;;;;;;;;5075782;28;20215;-66
2021/10/18 02:51:22;;;;;;;103.85;36.72;;;;;;;;;;5076704;28;20238;-66
2021/10/18 02:53:49;;;;;;;154.13;30.83;;;;;;;;;;5076286;28;20204;-66
2021/10/18 02:56:16;;;;;;;98.97;26.88;;;;;;;;;;5076334;28;20200;-66
2021/10/18 02:58:44;;;;;;;137.18;26.75;;;;;;;;;;5075705;28;20200;-66
2021/10/18 03:01:11;;;;;;;55.10;25.50;;;;;;;;;;5075922;28;20204;-68
2021/10/18 03:03:39;;;;;;;81.13;26.05;;;;;;;;;;5075161;28;20261;-66
2021/10/18 03:06:09;;;;;;;96.72;25.90;;;;;;;;;;5075121;28;20198;-66
2021/10/18 03:08:35;;;;;;;57.95;26.50;;;;;;;;;;5075282;28;20267;-66
2021/10/18 03:11:02;;;;;;;95.82;26.30;;;;;;;;;;5074675;28;20216;-66
2021/10/18 03:13:29;;;;;;;126.32;26.35;;;;;;;;;;5075492;28;20286;-66
2021/10/18 03:15:58;;;;;;;83.18;24.73;;;;;;;;;;5075571;28;20272;-66
2021/10/18 03:18:28;;;;;;;206.48;29.55;;;;;;;;;;5076065;28;20224;-66
2021/10/18 03:20:54;;;;;;;140.15;26.38;;;;;;;;;;5076213;28;20224;-66
2021/10/18 03:23:25;;;;;;;176.48;27.45;;;;;;;;;;5075843;28;20184;-66
2021/10/18 03:25:52;;;;;;;304.63;32.20;;;;;;;;;;5075636;28;20200;-66
2021/10/18 03:28:21;;;;;;;183.88;28.17;;;;;;;;;;5075329;28;20192;-66
2021/10/18 03:30:48;;;;;;;193.32;29.85;;;;;;;;;;5075082;28;20242;-66
2021/10/18 03:33:15;;;;;;;204.27;28.85;;;;;;;;;;5075759;28;20191;-66
2021/10/18 03:35:42;;;;;;;194.20;28.80;;;;;;;;;;5075651;28;20218;-66
2021/10/18 03:38:08;;;;;;;205.18;30.23;;;;;;;;;;5075405;28;20200;-66
2021/10/18 03:40:35;;;;;;;198.35;26.60;;;;;;;;;;5074698;28;20204;-66
2021/10/18 03:43:04;;;;;;;86.13;23.92;;;;;;;;;;5074325;28;20245;-66
2021/10/18 03:45:31;;;;;;;112.03;26.27;;;;;;;;;;5074846;28;20275;-66
2021/10/18 03:47:57;;;;;;;304.35;27.55;;;;;;;;;;5073382;28;20218;-66
2021/10/18 03:50:24;;;;;;;166.07;26.80;;;;;;;;;;5073864;28;20211;-66
2021/10/18 03:52:51;;;;;;;151.18;25.60;;;;;;;;;;5074114;28;20192;-66
2021/10/18 03:55:17;;;;;;;100.10;28.17;;;;;;;;;;5075780;28;20295;-66
2021/10/18 03:57:44;;;;;;;84.57;24.83;;;;;;;;;;5075557;28;20554;-66
2021/10/18 04:00:11;;;;;;;54.72;26.90;;;;;;;;;;5075454;28;20548;-66
2021/10/18 04:02:38;;;;;;;87.22;24.40;;;;;;;;;;5075434;28;20258;-66
2021/10/18 04:05:05;;;;;;;64.10;23.05;;;;;;;;;;5075269;28;20658;-66
2021/10/18 04:07:31;;;;;;;49.20;22.00;;;;;;;;;;5075353;28;20207;-66
2021/10/18 04:09:58;;;;;;;62.70;23.90;;;;;;;;;;5073907;28;20192;-66
2021/10/18 04:12:24;;;;;;;103.03;24.23;;;;;;;;;;5075222;28;20613;-66
2021/10/18 04:14:51;;;;;;;46.50;23.63;;;;;;;;;;5075150;28;20200;-66
2021/10/18 04:17:20;;;;;;;47.83;22.88;;;;;;;;;;5074658;28;20228;-66
2021/10/18 04:19:47;;;;;;;62.72;22.85;;;;;;;;;;5074966;28;20349;-66
2021/10/18 04:22:14;;;;;;;92.78;24.10;;;;;;;;;;5073378;28;20219;-66
2021/10/18 04:24:40;;;;;;;49.92;23.00;;;;;;;;;;5073381;28;20200;-66
2021/10/18 04:27:10;;;;;;;44.45;24.75;;;;;;;;;;5072875;28;20203;-66
2021/10/18 04:29:36;;;;;;;44.08;24.08;;;;;;;;;;5072844;28;20207;-66
2021/10/18 04:32:03;;;;;;;47.55;22.95;;;;;;;;;;5072796;28;20225;-66
2021/10/18 04:34:30;;;;;;;44.17;22.58;;;;;;;;;;5074254;28;20270;-66
2021/10/18 04:36:56;;;;;;;42.97;21.42;;;;;;;;;;5073025;28;20208;-66
2021/10/18 04:39:23;;;;;;;53.22;21.25;;;;;;;;;;5073115;28;20203;-66
2021/10/18 04:41:50;;;;;;;42.22;21.00;;;;;;;;;;5074458;28;20214;-66
2021/10/18 04:44:17;;;;;;;44.60;22.40;;;;;;;;;;5074229;28;20188;-66
2021/10/18 04:46:44;;;;;;;73.55;23.33;;;;;;;;;;5074355;28;20196;-66
2021/10/18 04:49:11;;;;;;;64.50;25.55;;;;;;;;;;5074084;28;20195;-66
2021/10/18 04:51:38;;;;;;;92.63;23.40;;;;;;;;;;5074133;28;20289;-66
2021/10/18 04:54:05;;;;;;;101.60;23.25;;;;;;;;;;5073159;28;20203;-66
2021/10/18 04:56:31;;;;;;;53.00;24.33;;;;;;;;;;5077482;28;20202;-66
2021/10/18 04:58:58;;;;;;;63.03;24.75;;;;;;;;;;5077481;28;20184;-66
2021/10/18 05:01:25;;;;;;;131.20;23.52;;;;;;;;;;5077847;28;20287;-66
2021/10/18 05:03:51;;;;;;;94.00;20.42;;;;;;;;;;5077776;28;20555;-66
2021/10/18 05:06:18;;;;;;;79.18;21.08;;;;;;;;;;5077577;28;20278;-66
2021/10/18 05:08:45;;;;;;;65.13;21.83;;;;;;;;;;5077842;28;20204;-66
2021/10/18 05:11:11;;;;;;;118.25;25.10;;;;;;;;;;5077678;28;20645;-66
2021/10/18 05:13:38;;;;;;;68.28;21.52;;;;;;;;;;5077360;28;20200;-66
2021/10/18 05:16:04;;;;;;;107.25;24.35;;;;;;;;;;5077624;28;20648;-66
2021/10/18 05:18:31;;;;;;;97.57;24.15;;;;;;;;;;5077591;28;20238;-66
2021/10/18 05:20:58;;;;;;;97.78;24.65;;;;;;;;;;5077461;28;20199;-66
2021/10/18 05:23:28;;;;;;;117.97;24.02;;;;;;;;;;5077301;28;20203;-66
2021/10/18 05:25:55;;;;;;;75.28;21.27;;;;;;;;;;5077021;28;20228;-66
2021/10/18 05:28:22;;;;;;;58.45;21.73;;;;;;;;;;5077680;28;20282;-66
2021/10/18 05:30:49;;;;;;;92.95;22.83;;;;;;;;;;5077170;28;20232;-66
2021/10/18 05:33:16;;;;;;;79.75;21.35;;;;;;;;;;5077084;28;20199;-66
2021/10/18 05:35:42;;;;;;;74.72;21.58;;;;;;;;;;5076147;28;20283;-66
2021/10/18 05:38:09;;;;;;;72.50;20.80;;;;;;;;;;5075974;28;20200;-66
2021/10/18 05:40:35;;;;;;;69.35;21.08;;;;;;;;;;5075915;28;20208;-66
2021/10/18 05:43:02;;;;;;;68.85;20.90;;;;;;;;;;5065829;28;20201;-66
2021/10/18 05:45:33;;;;;;;60.75;20.15;;;;;;;;;;5064120;28;20212;-67
2021/10/18 05:48:01;;;;;;;65.75;22.25;;;;;;;;;;5073338;28;20218;-66
2021/10/18 05:50:29;;;;;;;53.53;21.17;;;;;;;;;;5076638;28;20208;-67
2021/10/18 05:52:56;;;;;;;48.58;19.23;;;;;;;;;;5074929;28;20196;-67
2021/10/18 05:55:23;;;;;;;54.00;20.38;;;;;;;;;;5074626;28;20651;-67
2021/10/18 05:57:51;;;;;;;53.20;21.95;;;;;;;;;;5067144;28;20639;-67
2021/10/18 06:00:18;;;;;;;46.83;18.48;;;;;;;;;;5076306;28;20206;-66
2021/10/18 06:02:45;;;;;;;78.80;20.15;;;;;;;;;;5076532;28;20200;-66
2021/10/18 06:05:12;;;;;;;47.90;19.55;;;;;;;;;;5076612;28;20298;-66
2021/10/18 06:07:38;;;;;;;67.93;20.10;;;;;;;;;;5075879;28;20682;-66
2021/10/18 06:10:06;;;;;;;66.95;19.80;;;;;;;;;;5075779;28;20192;-66
2021/10/18 06:12:32;;;;;;;83.55;20.30;;;;;;;;;;5075565;28;20216;-66
2021/10/18 06:14:59;;;;;;;107.10;20.70;;;;;;;;;;5075929;28;20249;-67
2021/10/18 06:17:26;;;;;;;86.70;20.40;;;;;;;;;;5075248;28;20231;-67
2021/10/18 06:19:52;;;;;;;75.05;23.05;;;;;;;;;;5075199;28;20195;-67
2021/10/18 06:22:19;;;;;;;133.65;22.10;;;;;;;;;;5073450;28;20211;-67
2021/10/18 06:24:45;;;;;;;115.45;20.55;;;;;;;;;;5073260;28;20208;-67
2021/10/18 06:27:12;;;;;;;81.47;22.15;;;;;;;;;;5073376;28;20258;-67
2021/10/18 06:29:39;;;;;;;78.88;21.65;;;;;;;;;;5073563;28;20655;-67
2021/10/18 06:32:06;;;;;;;67.47;22.73;;;;;;;;;;5074315;28;20521;-67
2021/10/18 06:34:33;;;;;;;62.10;22.13;;;;;;;;;;5074622;28;20207;-66
2021/10/18 06:37:00;;;;;;;62.08;23.38;;;;;;;;;;5074195;28;20199;-67
2021/10/18 06:39:26;;;;;;;62.38;21.60;;;;;;;;;;5074369;28;20203;-66
2021/10/18 06:41:53;;;;;;;59.33;22.92;;;;;;;;;;5074229;28;20198;-66
2021/10/18 06:44:20;;;;;;;65.38;23.65;;;;;;;;;;5074245;28;20561;-66
2021/10/18 06:46:47;;;;;;;62.58;22.52;;;;;;;;;;5074348;28;20227;-66
2021/10/18 06:49:13;;;;;;;47.80;19.60;;;;;;;;;;5074299;28;20199;-66
2021/10/18 06:51:46;;;;;;;49.17;20.40;;;;;;;;;;5074083;28;20575;-67
2021/10/18 06:54:13;;;;;;;48.35;20.17;;;;;;;;;;5074391;28;20659;-66
2021/10/18 06:56:46;;;;;;;44.92;20.33;;;;;;;;;;5074069;28;20199;-65
2021/10/18 06:59:13;;;;;;;46.20;18.20;;;;;;;;;;5073896;28;20180;-66
2021/10/18 07:01:40;;;;;;;50.30;19.77;;;;;;;;;;5072649;28;20216;-65
2021/10/18 07:04:07;;;;;;;55.55;21.80;;;;;;;;;;5073785;28;20594;-65
2021/10/18 07:06:34;;;;;;;39.67;21.42;;;;;;;;;;5073713;28;20278;-65
2021/10/18 07:09:01;;;;;;;40.53;20.33;;;;;;;;;;5073714;28;20761;-65
2021/10/18 07:11:28;;;;;;;40.63;20.17;;;;;;;;;;5073702;28;20234;-65
2021/10/18 07:13:54;;;;;;;40.85;22.25;;;;;;;;;;5073899;28;20639;-65
2021/10/18 07:16:24;;;;;;;46.47;23.00;;;;;;;;;;5073125;28;20636;-65
2021/10/18 07:18:51;;;;;;;38.40;20.50;;;;;;;;;;5073494;28;20176;-65
2021/10/18 07:21:17;;;;;;;52.72;23.45;;;;;;;;;;5073110;28;20212;-65
2021/10/18 07:23:46;;;;;;;35.53;18.85;;;;;;;;;;5073741;28;20608;-65
2021/10/18 07:26:13;;;;;;;44.60;21.05;;;;;;;;;;5073388;28;20206;-65
2021/10/18 07:28:39;;;;;;;46.47;19.48;;;;;;;;;;5073819;28;20207;-65
2021/10/18 07:31:06;;;;;;;35.58;18.48;;;;;;;;;;5073455;28;20239;-65
2021/10/18 07:33:34;;;;;;;38.08;18.33;;;;;;;;;;5073459;28;20192;-65
2021/10/18 07:36:08;;;;;;;41.92;21.05;;;;;;;;;;5073264;28;20188;-65
2021/10/18 07:38:36;;;;;;;32.28;19.63;;;;;;;;;;5073442;28;20705;-66
2021/10/18 07:41:02;;;;;;;44.92;21.38;;;;;;;;;;5073290;28;20192;-65
2021/10/18 07:43:29;;;;;;;33.83;19.92;;;;;;;;;;5073443;28;20654;-65
2021/10/18 07:45:56;;;;;;;38.22;19.35;;;;;;;;;;5073430;28;20203;-65
2021/10/18 07:48:22;;;;;;;32.08;18.10;;;;;;;;;;5073077;28;20214;-65
2021/10/18 07:50:49;;;;;;;49.28;19.80;;;;;;;;;;5073369;28;20242;-65
2021/10/18 07:53:16;;;;;;;30.88;18.63;;;;;;;;;;5063488;28;20217;-65
2021/10/18 07:55:43;;;;;;;46.95;20.77;;;;;;;;;;5069209;28;20200;-65
2021/10/18 07:58:11;;;;;;;38.22;21.60;;;;;;;;;;5072962;28;20681;-66
2021/10/18 08:00:38;;;;;;;38.80;20.85;;;;;;;;;;5059530;28;20209;-66
2021/10/18 08:03:08;;;;;;;38.42;20.88;;;;;;;;;;5073844;28;20204;-66
2021/10/18 08:05:35;;;;;;;39.80;23.65;;;;;;;;;;5068005;28;20219;-65
2021/10/18 08:08:03;;;;;;;35.63;21.90;;;;;;;;;;5065310;28;20199;-65
2021/10/18 08:10:30;;;;;;;35.30;19.90;;;;;;;;;;5074079;28;20227;-65
2021/10/18 08:12:59;;;;;;;41.83;20.95;;;;;;;;;;5073504;28;20254;-65
2021/10/18 08:15:30;;;;;;;35.55;22.10;;;;;;;;;;5070842;28;20189;-65
2021/10/18 08:17:57;;;;;;;31.27;20.98;;;;;;;;;;5061582;28;20560;-66
2021/10/18 08:20:24;;;;;;;32.35;19.15;;;;;;;;;;5072475;28;20188;-65
2021/10/18 08:22:50;;;;;;;26.35;17.90;;;;;;;;;;5072473;28;20188;-66
2021/10/18 08:25:18;;;;;;;28.10;17.10;;;;;;;;;;5073540;28;20256;-66
2021/10/18 08:27:45;;;;;;;26.60;17.17;;;;;;;;;;5073364;28;20191;-66
2021/10/18 08:30:12;;;;;;;28.80;19.30;;;;;;;;;;5075378;28;20202;-66
2021/10/18 08:32:40;;;;;;;24.77;17.50;;;;;;;;;;5077678;28;20211;-66
2021/10/18 08:35:08;;;;;;;24.77;17.17;;;;;;;;;;5078204;28;20675;-65
2021/10/18 08:40:21;;;;;;;30.23;16.70;;;;;;;;;;5078108;28;20255;-65
2021/10/18 08:43:00;;;;;;;19.48;14.68;;;;;;;;;;5078186;28;20230;-66
2021/10/18 08:45:30;;;;;;;20.95;14.60;;;;;;;;;;5078044;28;20212;-66
2021/10/18 08:47:56;;;;;;;30.17;16.25;;;;;;;;;;5077301;28;20309;-66
2021/10/18 08:50:24;;;;;;;21.52;15.43;;;;;;;;;;5076627;28;20652;-66
2021/10/18 08:52:51;;;;;;;20.30;15.18;;;;;;;;;;5076295;28;20216;-66
2021/10/18 08:55:18;;;;;;;26.13;17.58;;;;;;;;;;5076533;28;20211;-66
2021/10/18 08:57:44;;;;;;;24.60;17.35;;;;;;;;;;5077709;28;20192;-66
2021/10/18 09:00:31;;;;;;;26.85;16.23;;;;;;;;;;5076758;28;20199;-65
2021/10/18 09:02:58;;;;;;;26.20;16.92;;;;;;;;;;5069369;28;20244;-66
2021/10/18 09:05:24;;;;;;;27.05;16.90;;;;;;;;;;5076450;28;20222;-66
2021/10/18 09:07:51;;;;;;;28.77;17.25;;;;;;;;;;5077320;28;20192;-66
2021/10/18 09:10:18;;;;;;;28.02;18.70;;;;;;;;;;5077631;28;20208;-66
2021/10/18 09:12:46;;;;;;;30.48;18.45;;;;;;;;;;5077392;28;20208;-66
2021/10/18 09:15:20;;;;;;;25.52;18.27;;;;;;;;;;5077317;28;20206;-66
2021/10/18 09:17:54;;;;;;;31.67;20.02;;;;;;;;;;5077020;28;20635;-66
2021/10/18 09:20:25;;;;;;;24.13;15.95;;;;;;;;;;5077191;28;20176;-66
2021/10/18 09:22:53;;;;;;;28.23;18.95;;;;;;;;;;5077535;28;20211;-66
2021/10/18 09:25:36;;;;;;;23.58;17.65;;;;;;;;;;5076505;28;20659;-66
2021/10/18 09:28:10;;;;;;;31.42;19.45;;;;;;;;;;5076852;28;20204;-66
2021/10/18 09:30:40;;;;;;;25.73;17.70;;;;;;;;;;5077163;28;20203;-66
2021/10/18 09:33:14;;;;;;;26.67;17.88;;;;;;;;;;5076809;28;20220;-66
2021/10/18 09:35:41;;;;;;;24.60;17.08;;;;;;;;;;5077202;28;20200;-66
2021/10/18 09:38:09;;;;;;;22.73;17.35;;;;;;;;;;5077430;28;20275;-66
2021/10/18 09:40:39;;;;;;;22.55;17.85;;;;;;;;;;5074827;28;20219;-66
2021/10/18 09:45:37;;;;;;;23.42;17.90;;;;;;;;;;5076691;28;20689;-66
2021/10/18 10:53:12;;;;;;;22.25;16.73;;;;;;;;;;5075007;28;20224;-66
2021/10/18 10:55:39;;;;;;;21.60;16.85;;;;;;;;;;5074648;28;20175;-66
2021/10/18 10:58:27;;;;;;;20.60;16.73;;;;;;;;;;5074813;28;20192;-66
2021/10/18 11:00:54;;;;;;;23.85;17.50;;;;;;;;;;5075124;28;20192;-66
2021/10/18 11:03:21;;;;;;;24.13;17.83;;;;;;;;;;5075161;28;20286;-66
2021/10/18 11:05:57;;;;;;;22.80;18.23;;;;;;;;;;5074937;28;20636;-66
2021/10/18 11:08:38;;;;;;;21.73;17.52;;;;;;;;;;5074996;28;20218;-66
2021/10/18 11:11:17;;;;;;;24.33;19.38;;;;;;;;;;5075083;28;20200;-66
2021/10/18 11:13:51;;;;;;;29.02;20.13;;;;;;;;;;5074639;28;20583;-67
2021/10/18 11:16:22;;;;;;;24.92;19.48;;;;;;;;;;5074349;28;20229;-65
2021/10/18 11:18:50;;;;;;;22.15;17.42;;;;;;;;;;5074828;28;20176;-66
2021/10/18 11:21:19;;;;;;;26.48;19.67;;;;;;;;;;5075477;28;20192;-66
2021/10/18 11:23:54;;;;;;;29.05;18.33;;;;;;;;;;5075357;28;20200;-66
2021/10/18 11:26:21;;;;;;;19.20;16.25;;;;;;;;;;5075378;28;20204;-66
2021/10/18 11:28:51;;;;;;;22.80;17.75;;;;;;;;;;5074907;28;20290;-66
2021/10/18 11:31:17;;;;;;;27.70;17.13;;;;;;;;;;5074603;28;20198;-66
2021/10/18 11:34:01;;;;;;;23.73;16.63;;;;;;;;;;5074360;28;20223;-66
2021/10/18 11:36:27;;;;;;;23.98;19.50;;;;;;;;;;5074945;28;20661;-66
2021/10/18 11:39:07;;;;;;;24.65;19.05;;;;;;;;;;5073554;28;20208;-66
2021/10/18 11:41:53;;;;;;;26.55;19.75;;;;;;;;;;5073186;28;20214;-66
2021/10/18 11:44:36;;;;;;;24.77;20.02;;;;;;;;;;5073919;28;20211;-66
2021/10/18 11:47:03;;;;;;;29.05;19.60;;;;;;;;;;5074997;28;20215;-65
2021/10/18 11:49:30;;;;;;;25.92;17.50;;;;;;;;;;5074781;28;20251;-66
2021/10/18 11:51:56;;;;;;;23.05;17.58;;;;;;;;;;5074675;28;20224;-66
2021/10/18 11:54:23;;;;;;;23.70;17.48;;;;;;;;;;5074555;28;20188;-66
2021/10/18 11:56:57;;;;;;;21.90;17.00;;;;;;;;;;5074894;28;20187;-66
2021/10/18 11:59:23;;;;;;;20.73;15.88;;;;;;;;;;5075337;28;20200;-66
2021/10/18 12:01:50;;;;;;;20.98;17.67;;;;;;;;;;5074593;28;20668;-65
2021/10/18 12:04:16;;;;;;;20.63;16.43;;;;;;;;;;5073843;28;20218;-66
2021/10/18 12:06:46;;;;;;;20.13;15.93;;;;;;;;;;5077314;28;20606;-66
2021/10/18 12:09:25;;;;;;;21.47;17.30;;;;;;;;;;5077180;28;20613;-66
2021/10/18 12:11:53;;;;;;;17.10;14.93;;;;;;;;;;5077155;28;20620;-66
2021/10/18 12:14:20;;;;;;;17.93;13.60;;;;;;;;;;5078667;28;20621;-66
2021/10/18 12:16:46;;;;;;;18.40;14.80;;;;;;;;;;5078495;28;20653;-66
2021/10/18 12:19:13;;;;;;;15.80;13.60;;;;;;;;;;5078790;28;20626;-66
2021/10/18 12:21:40;;;;;;;14.60;12.43;;;;;;;;;;5078727;28;20717;-66
2021/10/18 12:24:11;;;;;;;14.40;12.97;;;;;;;;;;5078409;28;20617;-66
2021/10/18 12:26:47;;;;;;;15.07;13.47;;;;;;;;;;5078326;28;20586;-66
2021/10/18 12:29:13;;;;;;;15.73;12.73;;;;;;;;;;5078146;28;20625;-66
2021/10/18 12:31:48;;;;;;;16.10;13.90;;;;;;;;;;5078411;28;21187;-66
2021/10/18 12:34:16;;;;;;;13.63;12.33;;;;;;;;;;5078851;28;20609;-66
2021/10/18 12:36:53;;;;;;;17.70;13.00;;;;;;;;;;5077982;28;20772;-66
2021/10/18 12:39:33;;;;;;;17.90;13.40;;;;;;;;;;5078728;28;20644;-66
2021/10/18 12:41:59;;;;;;;16.00;14.30;;;;;;;;;;5077325;28;20628;-67
2021/10/18 12:44:36;;;;;;;19.80;14.77;;;;;;;;;;5077442;28;21191;-66
2021/10/18 12:47:09;;;;;;;17.30;15.00;;;;;;;;;;5078122;28;20698;-66
2021/10/18 12:49:36;;;;;;;16.33;14.57;;;;;;;;;;5077775;28;20588;-66
2021/10/18 12:52:04;;;;;;;17.33;15.53;;;;;;;;;;5077726;28;20697;-66
2021/10/18 12:54:39;;;;;;;16.30;14.00;;;;;;;;;;5077837;28;20645;-67
2021/10/18 12:57:10;;;;;;;15.83;13.93;;;;;;;;;;5077828;28;20953;-66
2021/10/18 12:59:37;;;;;;;17.77;15.00;;;;;;;;;;5077676;28;20594;-66
2021/10/18 13:02:24;;;;;;;16.70;14.40;;;;;;;;;;5076696;28;20978;-66
2021/10/18 13:05:05;;;;;;;17.47;14.77;;;;;;;;;;5076427;28;20709;-66
2021/10/18 13:07:39;;;;;;;19.87;14.60;;;;;;;;;;5076221;28;20602;-67
2021/10/18 13:10:08;;;;;;;15.97;14.27;;;;;;;;;;5076259;28;20598;-67
2021/10/18 13:12:35;;;;;;;15.83;14.27;;;;;;;;;;5076306;28;21225;-67
2021/10/18 13:15:01;;;;;;;15.13;13.53;;;;;;;;;;5076671;28;20614;-67
2021/10/18 13:17:28;;;;;;;15.60;14.00;;;;;;;;;;5076080;28;20633;-67
2021/10/18 13:19:55;;;;;;;15.93;14.20;;;;;;;;;;5075848;28;20602;-67
2021/10/18 13:22:22;;;;;;;15.03;13.53;;;;;;;;;;5075609;28;20632;-67
2021/10/18 13:24:49;;;;;;;16.70;14.93;;;;;;;;;;5074427;28;20625;-67
2021/10/18 13:27:16;;;;;;;15.50;14.00;;;;;;;;;;5075588;28;20656;-67
2021/10/18 13:29:42;;;;;;;18.70;14.07;;;;;;;;;;5075613;28;21144;-67
2021/10/18 13:32:10;;;;;;;16.43;14.87;;;;;;;;;;5075726;28;20653;-67
2021/10/18 13:34:37;;;;;;;16.80;15.20;;;;;;;;;;5075628;28;20687;-67
2021/10/18 13:37:04;;;;;;;16.10;14.37;;;;;;;;;;5076100;28;20586;-67
2021/10/18 13:39:32;;;;;;;16.30;14.73;;;;;;;;;;5075709;28;21171;-67
2021/10/18 13:41:59;;;;;;;15.80;14.30;;;;;;;;;;5074138;28;20617;-67
2021/10/18 13:44:26;;;;;;;14.63;13.13;;;;;;;;;;5075503;28;20994;-67
2021/10/18 13:46:52;;;;;;;14.40;13.07;;;;;;;;;;5075406;28;21162;-67
2021/10/18 13:49:19;;;;;;;16.63;13.87;;;;;;;;;;5077082;28;20606;-67
2021/10/18 13:51:45;;;;;;;16.60;14.53;;;;;;;;;;5076901;28;20610;-67
2021/10/18 13:54:12;;;;;;;14.30;13.00;;;;;;;;;;5075625;28;20645;-67
2021/10/18 13:56:42;;;;;;;13.87;12.50;;;;;;;;;;5076675;28;20594;-67
2021/10/18 13:59:09;;;;;;;15.77;14.27;;;;;;;;;;5076152;28;20641;-67
2021/10/18 14:01:36;;;;;;;14.57;13.17;;;;;;;;;;5074064;28;20610;-67
2021/10/18 14:04:04;;;;;;;14.13;12.93;;;;;;;;;;5075051;28;20617;-67
2021/10/18 14:06:30;;;;;;;15.43;13.80;;;;;;;;;;5075179;28;20622;-67
2021/10/18 14:08:57;;;;;;;15.80;14.17;;;;;;;;;;5074825;28;20937;-67
2021/10/18 14:11:24;;;;;;;16.83;15.07;;;;;;;;;;5074800;28;20621;-67
2021/10/18 14:13:50;;;;;;;15.87;14.17;;;;;;;;;;5075124;28;20657;-67
2021/10/18 14:16:17;;;;;;;16.20;14.70;;;;;;;;;;5074953;28;20610;-67
2021/10/18 14:18:45;;;;;;;17.37;15.57;;;;;;;;;;5074697;28;20646;-67
2021/10/18 14:21:11;;;;;;;17.20;15.23;;;;;;;;;;5073526;28;20685;-67
2021/10/18 14:23:38;;;;;;;17.67;15.87;;;;;;;;;;5076108;28;20602;-67
2021/10/18 14:26:05;;;;;;;14.80;13.37;;;;;;;;;;5076260;28;20633;-67
2021/10/18 14:28:32;;;;;;;15.17;13.67;;;;;;;;;;5076115;28;20645;-67
2021/10/18 14:30:59;;;;;;;16.80;15.20;;;;;;;;;;5075813;28;20601;-67
2021/10/18 14:33:25;;;;;;;15.30;13.77;;;;;;;;;;5074956;28;20650;-67
2021/10/18 14:35:53;;;;;;;16.30;14.70;;;;;;;;;;5076118;28;20634;-67
2021/10/18 14:38:20;;;;;;;16.30;14.60;;;;;;;;;;5075552;28;20741;-67
2021/10/18 14:40:47;;;;;;;14.90;13.40;;;;;;;;;;5074301;28;20614;-67
2021/10/18 14:43:14;;;;;;;15.17;13.60;;;;;;;;;;5074986;28;20621;-67
2021/10/18 14:45:41;;;;;;;14.60;13.13;;;;;;;;;;5074809;28;20606;-67
2021/10/18 14:48:07;;;;;;;14.43;13.03;;;;;;;;;;5075655;28;20638;-67
2021/10/18 14:50:34;;;;;;;13.90;12.60;;;;;;;;;;5075799;28;20693;-67
2021/10/18 14:53:03;;;;;;;15.40;13.80;;;;;;;;;;5075357;28;20650;-67
2021/10/18 14:55:30;;;;;;;16.53;14.13;;;;;;;;;;5075146;28;20610;-67
2021/10/18 14:57:58;;;;;;;15.43;13.93;;;;;;;;;;5074798;28;20642;-67
2021/10/18 15:00:25;;;;;;;16.53;14.73;;;;;;;;;;5074950;28;20610;-67
2021/10/18 15:02:51;;;;;;;16.90;15.00;;;;;;;;;;5074492;28;20676;-67
2021/10/18 15:05:18;;;;;;;16.80;14.50;;;;;;;;;;5075230;28;20618;-67
2021/10/18 15:07:45;;;;;;;31.63;15.20;;;;;;;;;;5075321;28;20621;-67
2021/10/18 15:10:12;;;;;;;17.60;15.47;;;;;;;;;;5075648;28;20615;-67
2021/10/18 15:12:39;;;;;;;18.93;15.57;;;;;;;;;;5074971;28;20650;-67
2021/10/18 15:15:05;;;;;;;17.60;15.07;;;;;;;;;;5074083;28;20620;-67
2021/10/18 15:17:32;;;;;;;18.43;16.03;;;;;;;;;;5073757;28;21188;-67
2021/10/18 15:19:59;;;;;;;20.30;15.93;;;;;;;;;;5073717;28;20598;-67
2021/10/18 15:22:25;;;;;;;20.53;16.67;;;;;;;;;;5075099;28;20666;-67
2021/10/18 15:24:52;;;;;;;17.40;15.10;;;;;;;;;;5073916;28;20610;-67
2021/10/18 15:27:19;;;;;;;17.00;15.17;;;;;;;;;;5073559;28;20594;-67
2021/10/18 15:29:49;;;;;;;17.97;16.17;;;;;;;;;;5073602;28;20626;-67